createdAt,value
2022-09-01T00:01:42.176Z,16.60
2022-09-01T00:04:12.808Z,16.60
2022-09-01T00:06:40.975Z,16.50
2022-09-01T00:09:14.664Z,16.40
2022-09-01T00:11:50.304Z,16.40
2022-09-01T00:14:29.439Z,16.40
2022-09-01T00:17:03.406Z,16.40
2022-09-01T00:19:30.640Z,16.40
2022-09-01T00:21:57.815Z,16.30
2022-09-01T00:24:26.350Z,16.40
2022-09-01T00:26:54.801Z,16.30
2022-09-01T00:29:21.947Z,16.30
2022-09-01T00:31:49.632Z,16.30
2022-09-01T00:34:17.086Z,16.30
2022-09-01T00:36:43.955Z,16.20
2022-09-01T00:39:10.951Z,16.20
2022-09-01T00:41:39.753Z,16.10
2022-09-01T00:44:09.423Z,16.10
2022-09-01T00:46:55.019Z,16.10
2022-09-01T00:49:43.027Z,16.10
2022-09-01T00:52:22.137Z,16.10
2022-09-01T00:54:58.259Z,16.00
2022-09-01T00:57:25.636Z,16.00
2022-09-01T01:00:01.521Z,16.00
2022-09-01T01:02:28.460Z,15.90
2022-09-01T01:05:00.426Z,15.90
2022-09-01T01:07:28.347Z,15.90
2022-09-01T01:09:55.977Z,15.90
2022-09-01T01:12:23.682Z,15.80
2022-09-01T01:14:51.011Z,15.80
2022-09-01T01:17:23.251Z,15.80
2022-09-01T01:20:11.562Z,15.70
2022-09-01T01:23:09.086Z,15.70
2022-09-01T01:25:44.221Z,15.70
2022-09-01T01:28:21.111Z,15.60
2022-09-01T01:30:55.913Z,15.60
2022-09-01T01:33:27.888Z,15.60
2022-09-01T01:35:57.366Z,15.50
2022-09-01T01:38:27.435Z,15.50
2022-09-01T01:40:56.210Z,15.50
2022-09-01T01:43:24.890Z,15.50
2022-09-01T01:45:54.166Z,15.50
2022-09-01T01:48:25.568Z,15.40
2022-09-01T01:50:53.644Z,15.40
2022-09-01T01:53:21.245Z,15.40
2022-09-01T01:55:51.578Z,15.50
2022-09-01T01:58:20.821Z,15.50
2022-09-01T02:00:49.783Z,15.50
2022-09-01T02:03:21.916Z,15.40
2022-09-01T02:05:52.394Z,15.40
2022-09-01T02:08:22.700Z,15.50
2022-09-01T02:10:52.339Z,15.50
2022-09-01T02:13:30.817Z,15.40
2022-09-01T02:16:02.127Z,15.40
2022-09-01T02:18:35.648Z,15.40
2022-09-01T02:21:11.218Z,15.50
2022-09-01T02:23:41.385Z,15.40
2022-09-01T02:26:16.721Z,15.40
2022-09-01T02:28:50.926Z,15.40
2022-09-01T02:31:20.951Z,15.40
2022-09-01T02:33:48.630Z,15.40
2022-09-01T02:36:19.207Z,15.40
2022-09-01T02:38:53.529Z,15.40
2022-09-01T02:41:23.639Z,15.40
2022-09-01T02:43:51.046Z,15.40
2022-09-01T02:46:19.838Z,15.40
2022-09-01T02:48:51.476Z,15.40
2022-09-01T02:51:22.332Z,15.50
2022-09-01T02:53:52.526Z,15.40
2022-09-01T02:56:25.015Z,15.40
2022-09-01T02:58:52.919Z,15.40
2022-09-01T03:01:24.574Z,15.40
2022-09-01T03:03:55.489Z,15.30
2022-09-01T03:06:24.090Z,15.40
2022-09-01T03:08:53.393Z,15.40
2022-09-01T03:11:20.451Z,15.30
2022-09-01T03:13:47.231Z,15.30
2022-09-01T03:16:14.014Z,15.30
2022-09-01T03:18:40.764Z,15.30
2022-09-01T03:21:08.755Z,15.30
2022-09-01T03:23:36.756Z,15.40
2022-09-01T03:26:04.030Z,15.30
2022-09-01T03:28:31.886Z,15.30
2022-09-01T03:30:59.807Z,15.30
2022-09-01T03:33:28.512Z,15.30
2022-09-01T03:35:56.884Z,15.20
2022-09-01T03:38:25.024Z,15.20
2022-09-01T03:41:00.835Z,15.20
2022-09-01T03:43:35.531Z,15.10
2022-09-01T03:46:04.041Z,15.10
2022-09-01T03:48:32.362Z,15.10
2022-09-01T03:51:02.695Z,15.00
2022-09-01T03:53:34.975Z,15.00
2022-09-01T03:56:04.112Z,14.90
2022-09-01T03:58:32.233Z,14.90
2022-09-01T04:01:02.019Z,14.90
2022-09-01T04:03:34.441Z,14.90
2022-09-01T04:06:03.180Z,14.90
2022-09-01T04:08:32.756Z,14.90
2022-09-01T04:11:03.737Z,14.90
2022-09-01T04:13:36.097Z,14.90
2022-09-01T04:16:03.761Z,14.90
2022-09-01T04:18:30.559Z,14.90
2022-09-01T04:20:59.607Z,15.00
2022-09-01T04:23:33.874Z,15.00
2022-09-01T04:26:14.766Z,15.00
2022-09-01T04:28:45.501Z,15.00
2022-09-01T04:31:19.397Z,15.00
2022-09-01T04:33:52.599Z,15.00
2022-09-01T04:36:23.680Z,14.90
2022-09-01T04:38:54.584Z,14.90
2022-09-01T04:41:25.710Z,14.90
2022-09-01T04:43:56.901Z,14.90
2022-09-01T04:46:32.039Z,14.90
2022-09-01T04:48:59.665Z,14.90
2022-09-01T04:51:29.503Z,14.90
2022-09-01T04:53:57.645Z,14.90
2022-09-01T04:56:26.669Z,14.90
2022-09-01T04:59:07.897Z,14.90
2022-09-01T05:01:43.275Z,14.90
2022-09-01T05:04:14.806Z,14.90
2022-09-01T05:06:44.473Z,14.80
2022-09-01T05:09:13.854Z,14.80
2022-09-01T05:12:12.939Z,14.80
2022-09-01T05:14:48.351Z,14.80
2022-09-01T05:17:18.582Z,14.70
2022-09-01T05:19:47.989Z,14.80
2022-09-01T05:22:18.629Z,14.80
2022-09-01T05:24:54.885Z,14.90
2022-09-01T05:27:22.845Z,14.90
2022-09-01T05:29:50.379Z,15.00
2022-09-01T05:32:17.364Z,15.10
2022-09-01T05:34:45.184Z,15.20
2022-09-01T05:37:14.504Z,15.20
2022-09-01T05:39:41.698Z,15.30
2022-09-01T05:42:09.631Z,15.30
2022-09-01T05:44:44.819Z,15.30
2022-09-01T05:47:20.983Z,15.30
2022-09-01T05:49:50.383Z,15.30
2022-09-01T05:52:17.446Z,15.40
2022-09-01T05:54:47.956Z,15.40
2022-09-01T05:57:35.851Z,15.50
2022-09-01T06:00:10.964Z,15.40
2022-09-01T06:02:40.998Z,15.40
2022-09-01T06:05:10.850Z,15.50
2022-09-01T06:07:40.514Z,15.50
2022-09-01T06:10:07.763Z,15.50
2022-09-01T06:12:34.754Z,15.60
2022-09-01T06:15:01.675Z,15.70
2022-09-01T06:17:29.995Z,15.70
2022-09-01T06:20:01.910Z,15.80
2022-09-01T06:22:29.581Z,15.80
2022-09-01T06:25:02.326Z,15.90
2022-09-01T06:27:42.441Z,15.90
2022-09-01T06:30:22.575Z,16.00
2022-09-01T06:32:56.038Z,16.00
2022-09-01T06:35:29.347Z,16.00
2022-09-01T06:37:58.368Z,16.00
2022-09-01T06:40:42.260Z,16.00
2022-09-01T06:43:12.478Z,16.00
2022-09-01T06:45:44.573Z,16.10
2022-09-01T06:48:16.530Z,16.00
2022-09-01T06:53:35.214Z,16.10
2022-09-01T06:56:04.551Z,16.10
2022-09-01T06:58:32.282Z,16.10
2022-09-01T07:00:59.142Z,16.20
2022-09-01T07:03:26.418Z,16.20
2022-09-01T07:06:59.052Z,16.30
2022-09-01T07:12:26.251Z,16.40
2022-09-01T07:17:42.625Z,16.50
2022-09-01T07:20:27.289Z,16.60
2022-09-01T07:28:38.904Z,16.80
2022-09-01T07:39:51.177Z,17.20
2022-09-01T07:42:30.322Z,16.70
2022-09-01T07:42:56.719Z,16.80
2022-09-01T07:45:59.089Z,17.40
2022-09-01T07:48:36.682Z,17.60
2022-09-01T07:54:06.106Z,17.80
2022-09-01T07:56:39.468Z,17.90
2022-09-01T07:59:09.335Z,17.90
2022-09-01T08:01:47.576Z,18.10
2022-09-01T08:04:14.874Z,18.20
2022-09-01T08:06:43.452Z,18.30
2022-09-01T08:09:11.903Z,18.40
2022-09-01T08:12:01.617Z,18.50
2022-09-01T08:14:33.761Z,18.70
2022-09-01T08:17:17.127Z,18.80
2022-09-01T08:19:46.885Z,18.90
2022-09-01T08:22:24.038Z,19.10
2022-09-01T08:24:59.157Z,19.20
2022-09-01T08:27:25.994Z,19.30
2022-09-01T08:29:52.703Z,19.50
2022-09-01T08:32:20.899Z,19.60
2022-09-01T08:34:47.939Z,19.70
2022-09-01T08:37:14.803Z,19.90
2022-09-01T08:39:42.383Z,20.10
2022-09-01T08:42:53.658Z,20.30
2022-09-01T08:45:22.900Z,20.50
2022-09-01T08:48:29.209Z,20.80
2022-09-01T08:50:45.637Z,21.10
2022-09-01T08:53:58.925Z,21.40
2022-09-01T08:56:26.847Z,21.70
2022-09-01T08:58:54.416Z,21.90
2022-09-01T09:01:38.417Z,22.10
2022-09-01T09:04:13.270Z,22.30
2022-09-01T09:06:57.964Z,22.50
2022-09-01T09:09:34.624Z,22.60
2022-09-01T09:12:29.399Z,22.70
2022-09-01T09:15:21.340Z,22.90
2022-09-01T09:18:00.354Z,23.00
2022-09-01T09:20:28.799Z,23.10
2022-09-01T09:22:59.315Z,23.20
2022-09-01T09:25:29.552Z,23.40
2022-09-01T09:28:03.278Z,23.40
2022-09-01T09:30:32.355Z,23.50
2022-09-01T09:35:51.691Z,23.70
2022-09-01T09:38:28.965Z,23.70
2022-09-01T09:41:18.302Z,23.80
2022-09-01T09:43:59.185Z,23.90
2022-09-01T09:46:32.116Z,24.00
2022-09-01T09:49:36.166Z,24.20
2022-09-01T09:52:10.382Z,24.20
2022-09-01T09:54:41.532Z,24.30
2022-09-01T09:57:18.023Z,24.30
2022-09-01T09:59:58.121Z,24.30
2022-09-01T10:02:34.415Z,24.30
2022-09-01T10:05:21.880Z,24.40
2022-09-01T10:07:49.142Z,24.50
2022-09-01T10:10:36.574Z,24.50
2022-09-01T10:13:03.541Z,24.60
2022-09-01T10:15:33.411Z,24.60
2022-09-01T10:18:37.679Z,24.70
2022-09-01T10:21:30.377Z,24.70
2022-09-01T10:26:52.035Z,24.80
2022-09-01T10:29:25.548Z,24.80
2022-09-01T10:32:14.767Z,24.80
2022-09-01T10:34:42.697Z,24.90
2022-09-01T10:37:11.704Z,25.00
2022-09-01T10:40:21.453Z,25.00
2022-09-01T10:42:55.362Z,25.10
2022-09-01T10:45:40.172Z,25.20
2022-09-01T10:48:32.114Z,25.30
2022-09-01T10:51:19.029Z,25.30
2022-09-01T10:53:47.613Z,25.50
2022-09-01T10:56:36.921Z,25.50
2022-09-01T10:59:43.273Z,25.60
2022-09-01T11:02:26.465Z,25.70
2022-09-01T11:04:54.576Z,25.70
2022-09-01T11:07:44.353Z,25.80
2022-09-01T11:10:35.601Z,25.90
2022-09-01T11:13:39.758Z,26.00
2022-09-01T11:16:51.369Z,26.00
2022-09-01T11:19:21.647Z,26.00
2022-09-01T11:22:02.744Z,25.90
2022-09-01T11:24:38.322Z,26.00
2022-09-01T11:27:07.204Z,26.10
2022-09-01T11:29:59.623Z,26.10
2022-09-01T11:32:34.080Z,26.20
2022-09-01T11:35:05.486Z,26.20
2022-09-01T11:37:33.395Z,26.20
2022-09-01T11:40:04.279Z,26.10
2022-09-01T11:42:45.893Z,26.20
2022-09-01T11:45:15.518Z,26.20
2022-09-01T11:48:10.619Z,26.20
2022-09-01T11:50:41.966Z,26.30
2022-09-01T11:53:20.032Z,26.40
2022-09-01T11:55:49.776Z,26.50
2022-09-01T11:58:34.460Z,26.50
2022-09-01T12:01:30.561Z,26.50
2022-09-01T12:03:58.785Z,26.40
2022-09-01T12:06:29.421Z,26.30
2022-09-01T12:09:02.128Z,26.30
2022-09-01T12:11:33.886Z,26.40
2022-09-01T12:14:11.596Z,26.40
2022-09-01T12:16:42.125Z,26.60
2022-09-01T12:19:21.986Z,26.50
2022-09-01T12:22:00.761Z,26.40
2022-09-01T12:24:30.389Z,26.40
2022-09-01T12:27:01.131Z,26.40
2022-09-01T12:29:32.179Z,26.40
2022-09-01T12:32:00.109Z,26.50
2022-09-01T12:35:00.824Z,26.50
2022-09-01T12:37:28.126Z,26.60
2022-09-01T12:39:58.461Z,26.60
2022-09-01T12:42:28.265Z,26.70
2022-09-01T12:44:57.140Z,26.60
2022-09-01T12:47:40.808Z,26.60
2022-09-01T12:50:09.163Z,26.50
2022-09-01T12:52:44.817Z,26.50
2022-09-01T12:58:09.715Z,26.70
2022-09-01T13:00:55.665Z,26.80
2022-09-01T13:03:23.162Z,26.70
2022-09-01T13:05:53.428Z,26.70
2022-09-01T13:08:28.743Z,26.70
2022-09-01T13:11:17.889Z,26.70
2022-09-01T13:13:44.803Z,26.80
2022-09-01T13:16:12.990Z,26.70
2022-09-01T13:21:30.043Z,26.60
2022-09-01T13:23:57.174Z,26.50
2022-09-01T13:26:24.038Z,26.60
2022-09-01T13:28:51.518Z,26.60
2022-09-01T13:31:34.324Z,26.60
2022-09-01T13:34:10.642Z,26.50
2022-09-01T13:36:49.440Z,26.50
2022-09-01T13:39:18.927Z,26.60
2022-09-01T13:41:47.041Z,26.60
2022-09-01T13:44:13.845Z,26.50
2022-09-01T13:50:05.137Z,26.50
2022-09-01T13:52:15.090Z,26.60
2022-09-01T13:54:44.229Z,26.60
2022-09-01T13:57:11.634Z,26.60
2022-09-01T13:59:38.883Z,26.60
2022-09-01T14:02:05.672Z,26.50
2022-09-01T14:04:32.465Z,26.50
2022-09-01T14:06:59.668Z,26.40
2022-09-01T14:09:26.410Z,26.50
2022-09-01T14:11:54.158Z,26.50
2022-09-01T14:14:21.253Z,26.50
2022-09-01T14:16:48.090Z,26.40
2022-09-01T14:19:15.727Z,26.40
2022-09-01T14:21:42.641Z,26.30
2022-09-01T14:24:09.331Z,26.30
2022-09-01T14:26:36.018Z,26.10
2022-09-01T14:29:02.726Z,26.10
2022-09-01T14:31:29.696Z,26.10
2022-09-01T14:33:56.340Z,26.10
2022-09-01T14:36:25.865Z,26.10
2022-09-01T14:38:53.710Z,26.10
2022-09-01T14:41:24.021Z,26.20
2022-09-01T14:43:54.778Z,26.20
2022-09-01T14:46:23.170Z,26.20
2022-09-01T14:48:50.673Z,26.20
2022-09-01T14:52:10.311Z,26.20
2022-09-01T14:54:14.537Z,26.20
2022-09-01T14:56:41.906Z,26.20
2022-09-01T14:59:10.819Z,26.20
2022-09-01T15:01:37.633Z,26.20
2022-09-01T15:04:04.407Z,26.10
2022-09-01T15:06:31.654Z,26.10
2022-09-01T15:08:59.754Z,26.20
2022-09-01T15:11:26.440Z,26.20
2022-09-01T15:13:53.099Z,26.20
2022-09-01T15:16:23.775Z,26.20
2022-09-01T15:18:50.978Z,26.10
2022-09-01T15:21:30.604Z,26.10
2022-09-01T15:23:57.512Z,26.10
2022-09-01T15:26:24.276Z,26.20
2022-09-01T15:28:51.098Z,26.10
2022-09-01T15:31:19.071Z,26.10
2022-09-01T15:34:02.435Z,26.00
2022-09-01T15:36:31.211Z,26.00
2022-09-01T15:38:58.920Z,26.00
2022-09-01T15:41:29.634Z,26.00
2022-09-01T15:43:57.826Z,25.90
2022-09-01T15:46:31.820Z,26.00
2022-09-01T15:49:00.116Z,26.00
2022-09-01T15:51:34.228Z,26.00
2022-09-01T15:54:06.951Z,25.90
2022-09-01T15:56:33.739Z,25.90
2022-09-01T15:59:02.310Z,25.80
2022-09-01T16:01:32.508Z,25.80
2022-09-01T16:04:01.139Z,25.70
2022-09-01T16:06:28.125Z,25.70
2022-09-01T16:08:54.940Z,25.70
2022-09-01T16:11:23.468Z,25.70
2022-09-01T16:13:54.112Z,25.60
2022-09-01T16:16:56.667Z,25.60
2022-09-01T16:19:42.893Z,25.60
2022-09-01T16:22:31.207Z,25.60
2022-09-01T16:25:06.567Z,25.50
2022-09-01T16:27:38.734Z,25.40
2022-09-01T16:30:12.413Z,25.40
2022-09-01T16:32:44.927Z,25.40
2022-09-01T16:35:11.596Z,25.30
2022-09-01T16:38:16.612Z,25.30
2022-09-01T16:41:42.259Z,25.20
2022-09-01T16:44:21.502Z,25.00
2022-09-01T16:47:02.755Z,24.90
2022-09-01T16:49:46.239Z,24.90
2022-09-01T16:52:32.800Z,24.90
2022-09-01T16:55:54.231Z,24.80
2022-09-01T16:58:37.077Z,24.80
2022-09-01T17:01:13.064Z,24.70
2022-09-01T17:04:22.419Z,24.60
2022-09-01T17:07:16.578Z,24.60
2022-09-01T17:09:56.618Z,24.50
2022-09-01T17:12:39.187Z,24.40
2022-09-01T17:15:15.918Z,24.40
2022-09-01T17:17:53.148Z,24.30
2022-09-01T17:20:24.938Z,24.20
2022-09-01T17:22:54.179Z,24.20
2022-09-01T17:25:25.917Z,24.10
2022-09-01T17:28:00.883Z,24.00
2022-09-01T17:30:27.730Z,24.00
2022-09-01T17:33:23.078Z,24.00
2022-09-01T17:36:09.068Z,23.90
2022-09-01T17:38:57.026Z,23.80
2022-09-01T17:41:41.919Z,23.80
2022-09-01T17:44:24.199Z,23.70
2022-09-01T17:47:01.759Z,23.60
2022-09-01T17:49:44.542Z,23.50
2022-09-01T17:52:22.617Z,23.50
2022-09-01T17:55:02.399Z,23.40
2022-09-01T17:57:48.705Z,23.30
2022-09-01T18:00:40.144Z,23.20
2022-09-01T18:03:25.956Z,23.10
2022-09-01T18:06:13.929Z,23.00
2022-09-01T18:08:47.673Z,22.90
2022-09-01T18:11:26.617Z,22.80
2022-09-01T18:14:13.611Z,22.80
2022-09-01T18:16:59.829Z,22.70
2022-09-01T18:19:36.378Z,22.60
2022-09-01T18:22:07.456Z,22.50
2022-09-01T18:24:52.775Z,22.50
2022-09-01T18:27:19.538Z,22.40
2022-09-01T18:29:52.043Z,22.30
2022-09-01T18:32:58.120Z,22.20
2022-09-01T18:35:49.360Z,22.10
2022-09-01T18:38:29.166Z,22.00
2022-09-01T18:41:04.388Z,22.00
2022-09-01T18:43:49.379Z,21.90
2022-09-01T18:46:28.119Z,21.80
2022-09-01T18:49:13.403Z,21.70
2022-09-01T18:51:52.811Z,21.60
2022-09-01T18:54:28.178Z,21.50
2022-09-01T18:57:06.720Z,21.50
2022-09-01T18:59:36.764Z,21.40
2022-09-01T19:02:40.127Z,21.40
2022-09-01T19:05:16.356Z,21.30
2022-09-01T19:07:55.626Z,21.30
2022-09-01T19:10:55.983Z,21.20
2022-09-01T19:13:30.228Z,21.20
2022-09-01T19:16:24.603Z,21.10
2022-09-01T19:19:11.026Z,21.00
2022-09-01T19:21:37.780Z,21.00
2022-09-01T19:24:41.217Z,20.90
2022-09-01T19:27:12.948Z,20.90
2022-09-01T19:30:05.780Z,20.90
2022-09-01T19:32:35.408Z,20.80
2022-09-01T19:35:13.263Z,20.80
2022-09-01T19:37:40.443Z,20.70
2022-09-01T19:40:10.234Z,20.70
2022-09-01T19:42:55.845Z,20.70
2022-09-01T19:45:37.869Z,20.70
2022-09-01T19:48:17.873Z,20.70
2022-09-01T19:50:56.410Z,20.60
2022-09-01T19:53:44.227Z,20.60
2022-09-01T19:56:17.217Z,20.50
2022-09-01T19:58:43.823Z,20.50
2022-09-01T20:01:21.213Z,20.40
2022-09-01T20:03:57.442Z,20.40
2022-09-01T20:06:34.276Z,20.40
2022-09-01T20:09:07.147Z,20.30
2022-09-01T20:12:04.426Z,20.20
2022-09-01T20:15:06.748Z,20.10
2022-09-01T20:17:42.375Z,20.10
2022-09-01T20:20:15.886Z,20.00
2022-09-01T20:23:07.954Z,20.00
2022-09-01T20:25:42.688Z,19.90
2022-09-01T20:28:25.499Z,19.90
2022-09-01T20:31:01.098Z,19.80
2022-09-01T20:33:40.244Z,19.80
2022-09-01T20:36:18.917Z,19.70
2022-09-01T20:39:15.112Z,19.70
2022-09-01T20:42:06.522Z,19.60
2022-09-01T20:44:43.485Z,19.60
2022-09-01T20:47:11.784Z,19.50
2022-09-01T20:49:39.322Z,19.50
2022-09-01T20:52:13.863Z,19.50
2022-09-01T20:54:55.671Z,19.40
2022-09-01T20:57:36.067Z,19.30
2022-09-01T21:00:09.876Z,19.30
2022-09-01T21:02:56.034Z,19.30
2022-09-01T21:05:28.686Z,19.30
2022-09-01T21:08:01.034Z,19.20
2022-09-01T21:10:47.981Z,19.10
2022-09-01T21:13:25.177Z,19.10
2022-09-01T21:16:03.730Z,19.00
2022-09-01T21:18:43.755Z,19.00
2022-09-01T21:21:29.935Z,18.90
2022-09-01T21:23:56.617Z,18.90
2022-09-01T21:26:23.510Z,18.90
2022-09-01T21:28:55.090Z,18.90
2022-09-01T21:31:24.071Z,18.80
2022-09-01T21:33:51.338Z,18.80
2022-09-01T21:36:18.483Z,18.80
2022-09-01T21:38:45.139Z,18.70
2022-09-01T21:41:13.162Z,18.70
2022-09-01T21:43:43.250Z,18.70
2022-09-01T21:46:10.673Z,18.70
2022-09-01T21:48:37.485Z,18.60
2022-09-01T21:51:04.767Z,18.60
2022-09-01T21:53:32.551Z,18.60
2022-09-01T21:55:59.603Z,18.50
2022-09-01T21:58:26.250Z,18.50
2022-09-01T22:00:52.944Z,18.50
2022-09-01T22:03:19.780Z,18.40
2022-09-01T22:05:46.618Z,18.40
2022-09-01T22:08:16.669Z,18.40
2022-09-01T22:10:46.914Z,18.40
2022-09-01T22:13:14.106Z,18.40
2022-09-01T22:15:46.762Z,18.40
2022-09-01T22:18:13.928Z,18.30
2022-09-01T22:20:41.326Z,18.30
2022-09-01T22:23:08.525Z,18.30
2022-09-01T22:25:36.287Z,18.30
2022-09-01T22:28:06.043Z,18.20
2022-09-01T22:30:33.594Z,18.30
2022-09-01T22:33:00.989Z,18.30
2022-09-01T22:35:28.272Z,18.20
2022-09-01T22:37:55.295Z,18.20
2022-09-01T22:40:22.026Z,18.20
2022-09-01T22:42:48.742Z,18.20
2022-09-01T22:45:15.482Z,18.10
2022-09-01T22:47:42.409Z,18.10
2022-09-01T22:50:10.171Z,18.10
2022-09-01T22:52:37.301Z,18.10
2022-09-01T22:55:05.662Z,18.00
2022-09-01T22:57:32.504Z,18.00
2022-09-01T22:59:59.249Z,18.00
2022-09-01T23:02:27.108Z,18.00
2022-09-01T23:04:54.161Z,17.90
2022-09-01T23:07:20.797Z,17.90
2022-09-01T23:09:47.451Z,17.90
2022-09-01T23:12:14.711Z,17.90
2022-09-01T23:14:41.631Z,17.80
2022-09-01T23:17:08.404Z,17.80
2022-09-01T23:19:35.191Z,17.80
2022-09-01T23:22:03.116Z,17.80
2022-09-01T23:24:29.887Z,17.70
2022-09-01T23:26:56.840Z,17.70
2022-09-01T23:29:25.167Z,17.70
2022-09-01T23:31:51.923Z,17.70
2022-09-01T23:34:18.713Z,17.70
2022-09-01T23:36:45.750Z,17.70
2022-09-01T23:39:12.411Z,17.70
2022-09-01T23:41:39.127Z,17.60
2022-09-01T23:44:09.398Z,17.60
2022-09-01T23:46:41.206Z,17.60
2022-09-01T23:49:08.990Z,17.60
2022-09-01T23:51:36.113Z,17.60
2022-09-01T23:54:03.035Z,17.50
2022-09-01T23:56:30.521Z,17.50
2022-09-01T23:58:59.519Z,17.50
